CA-0088 weather

Navan Bearbrook Airport
Ottawa, Ontario, Canada

Public forecast

Using degrees Celsius for public forecast. Weather courtesy of forecast.io.

Closest aviation weather report (METAR) to Navan Bearbrook Airport

Report is more than 6 hours old.

Closest report is Ottawa / Gatineau Airport, 13.7 nm (25.3 km) NW. Retrieved 2020/08/05 01:00 UTC (10 hours ago):

CYND 050100Z 11006KT 8SM OVC007 20/20 A2974 RMK SF8 LAST STFD OBS/NXT 051100Z SLP072 DENSITY ALT 1100FT

Closest aviation forecast (TAF) to Navan Bearbrook Airport

Forecast is more than 12 hours old.

Closest forecast is Ottawa / Gatineau Airport, 13.7 nm (25.3 km) NW. Retrieved 2020/08/04 18:00 UTC (17 hours ago):

TAF CYND 041738Z 0418/0501 07007KT 4SM -SHRA BR OVC005 TEMPO 0418/0501 P6SM -SHRA BKN009 OVC020 BECMG 0423/0501 02006KT RMK NXT FCST WILL BE ISSUED AT 051245Z